Time;durP1;ratioP1;P1;durP2;ratioP2;P2;SDS_P1;SDS_P2;PMS_P1;PMS_P2;Temp;Humidity;BMP_temperature;BMP_pressure;BME280_temperature;BME280_humidity;BME280_pressure;Samples;Min_cycle;Max_cycle;Signal;HPM_P1;HPM_P2
2021/04/18 00:01:31;;;;;;;7.55;5.05;;;8.10;99.90;;;;;;5034141;28;20440;-77
2021/04/18 00:03:58;;;;;;;12.07;5.28;;;8.00;99.90;;;;;;5037440;28;20260;-77
2021/04/18 00:06:25;;;;;;;12.95;5.55;;;8.00;99.90;;;;;;5053570;28;20142;-78
2021/04/18 00:08:53;;;;;;;12.40;5.35;;;7.90;99.90;;;;;;5046794;28;20650;-77
2021/04/18 00:11:20;;;;;;;8.48;4.88;;;7.80;99.90;;;;;;5045785;28;20149;-78
2021/04/18 00:13:47;;;;;;;8.93;5.00;;;7.80;99.90;;;;;;5037898;28;20474;-77
2021/04/18 00:16:14;;;;;;;8.40;4.90;;;7.80;99.90;;;;;;5034526;28;20514;-77
2021/04/18 00:18:41;;;;;;;10.85;5.32;;;7.80;99.90;;;;;;5035311;28;20103;-78
2021/04/18 00:21:08;;;;;;;9.55;5.20;;;7.80;99.90;;;;;;5035877;28;20109;-78
2021/04/18 00:23:34;;;;;;;11.43;6.03;;;7.80;99.90;;;;;;5036457;28;20144;-78
2021/04/18 00:26:00;;;;;;;10.73;5.38;;;7.80;99.90;;;;;;5036227;28;20105;-78
2021/04/18 00:28:27;;;;;;;8.63;5.25;;;7.80;99.90;;;;;;5035344;28;20137;-78
2021/04/18 00:30:53;;;;;;;7.75;4.70;;;7.80;99.90;;;;;;5036494;28;20509;-78
2021/04/18 00:33:20;;;;;;;8.88;5.22;;;7.80;99.90;;;;;;5036520;28;20080;-78
2021/04/18 00:35:47;;;;;;;10.40;5.45;;;7.80;99.90;;;;;;5035890;28;20042;-78
2021/04/18 00:38:13;;;;;;;10.30;5.63;;;7.70;99.90;;;;;;5035824;28;20103;-79
2021/04/18 00:40:40;;;;;;;7.95;5.30;;;7.70;99.90;;;;;;5037341;28;20084;-79
2021/04/18 00:43:06;;;;;;;10.05;5.95;;;7.70;99.90;;;;;;5041744;28;20536;-79
2021/04/18 00:45:33;;;;;;;10.75;6.05;;;7.70;99.90;;;;;;5047785;28;20073;-78
2021/04/18 00:48:02;;;;;;;11.32;5.75;;;7.70;99.90;;;;;;5047756;28;20053;-78
2021/04/18 00:50:30;;;;;;;10.15;5.72;;;7.70;99.90;;;;;;5042787;28;20122;-78
2021/04/18 00:52:58;;;;;;;10.52;5.85;;;7.70;99.90;;;;;;5038136;28;20081;-78
2021/04/18 00:55:28;;;;;;;10.80;6.00;;;7.70;99.90;;;;;;5037614;28;20670;-78
2021/04/18 00:57:56;;;;;;;11.25;6.90;;;7.70;99.90;;;;;;5037076;28;20084;-78
2021/04/18 01:00:24;;;;;;;11.52;6.43;;;7.60;99.90;;;;;;5037589;28;20132;-78
2021/04/18 01:02:51;;;;;;;10.73;6.50;;;7.60;99.90;;;;;;5037409;28;20136;-78
2021/04/18 01:05:17;;;;;;;10.75;6.25;;;7.60;99.90;;;;;;5037605;28;20128;-78
2021/04/18 01:07:44;;;;;;;10.60;6.88;;;7.50;99.90;;;;;;5036453;28;20141;-78
2021/04/18 01:10:13;;;;;;;12.20;8.15;;;7.50;99.90;;;;;;5034883;28;20098;-78
2021/04/18 01:12:40;;;;;;;15.00;8.68;;;7.40;99.90;;;;;;5034290;28;20136;-78
2021/04/18 01:15:08;;;;;;;13.80;8.73;;;7.30;99.90;;;;;;5032962;28;20132;-78
2021/04/18 01:17:35;;;;;;;20.67;9.45;;;7.30;99.90;;;;;;5033397;28;20561;-78
2021/04/18 01:20:03;;;;;;;15.70;9.52;;;7.30;99.90;;;;;;5035818;28;20072;-79
2021/04/18 01:22:30;;;;;;;13.52;8.95;;;7.30;99.90;;;;;;5036732;28;20077;-79
2021/04/18 01:24:58;;;;;;;15.10;9.02;;;7.30;99.90;;;;;;5036690;28;20129;-79
2021/04/18 01:27:24;;;;;;;15.20;9.13;;;7.30;99.90;;;;;;5036114;28;20076;-79
2021/04/18 01:29:50;;;;;;;14.75;9.73;;;7.40;99.90;;;;;;5036343;28;20470;-79
2021/04/18 01:32:21;;;;;;;17.73;10.55;;;7.30;99.90;;;;;;5035628;28;20111;-77
2021/04/18 01:34:48;;;;;;;20.05;10.55;;;7.30;99.90;;;;;;5035266;28;20049;-78
2021/04/18 01:37:16;;;;;;;17.63;10.90;;;7.30;99.90;;;;;;5035333;28;20072;-78
2021/04/18 01:39:44;;;;;;;17.45;10.65;;;7.30;99.90;;;;;;5036060;28;20084;-78
2021/04/18 01:42:11;;;;;;;19.70;12.07;;;7.30;99.90;;;;;;5035539;28;20107;-78
2021/04/18 01:44:38;;;;;;;19.45;12.07;;;7.30;99.90;;;;;;5035207;28;20128;-78
2021/04/18 01:47:05;;;;;;;17.70;11.65;;;7.40;99.90;;;;;;5035181;28;20063;-78
2021/04/18 01:49:31;;;;;;;20.83;13.30;;;7.40;99.90;;;;;;5035487;28;20057;-78
2021/04/18 01:51:58;;;;;;;19.38;12.75;;;7.40;99.90;;;;;;5034505;28;20085;-77
2021/04/18 01:54:25;;;;;;;21.90;14.50;;;7.40;99.90;;;;;;5034327;28;20128;-78
2021/04/18 01:56:52;;;;;;;20.85;13.82;;;7.40;99.90;;;;;;5033689;28;20478;-77
2021/04/18 01:59:19;;;;;;;17.77;13.43;;;7.40;99.90;;;;;;5032766;28;20137;-78
2021/04/18 02:01:45;;;;;;;23.17;13.80;;;7.40;99.90;;;;;;5032921;28;20045;-78
2021/04/18 02:04:23;;;;;;;19.27;13.20;;;7.40;99.90;;;;;;5032712;28;20110;-78
2021/04/18 02:06:49;;;;;;;21.88;12.20;;;7.40;99.90;;;;;;5032201;28;20196;-78
2021/04/18 02:09:16;;;;;;;17.58;11.02;;;7.40;99.90;;;;;;5033560;28;20136;-78
2021/04/18 02:11:43;;;;;;;16.23;11.15;;;7.40;99.90;;;;;;5032166;28;20061;-78
2021/04/18 02:14:10;;;;;;;19.38;10.55;;;7.40;99.90;;;;;;5032654;28;20134;-78
2021/04/18 02:16:37;;;;;;;18.65;9.65;;;7.40;99.90;;;;;;5032199;28;20137;-78
2021/04/18 02:19:04;;;;;;;15.98;9.63;;;7.40;99.90;;;;;;5032377;28;20092;-78
2021/04/18 02:21:31;;;;;;;17.27;10.52;;;7.40;99.90;;;;;;5032390;28;20060;-78
2021/04/18 02:23:57;;;;;;;15.77;9.70;;;7.30;99.90;;;;;;5032486;28;20477;-78
2021/04/18 02:26:24;;;;;;;14.73;9.55;;;7.30;99.90;;;;;;5032101;28;20069;-78
2021/04/18 02:28:50;;;;;;;15.18;9.38;;;7.30;99.90;;;;;;5032361;28;20136;-78
2021/04/18 02:31:17;;;;;;;17.30;9.57;;;7.30;99.90;;;;;;5032921;28;20208;-78
2021/04/18 02:33:44;;;;;;;13.40;9.00;;;7.30;99.90;;;;;;5032817;28;20133;-76
2021/04/18 02:36:10;;;;;;;17.48;10.25;;;7.30;99.90;;;;;;5032176;28;20136;-77
2021/04/18 02:38:37;;;;;;;16.45;9.48;;;7.30;99.90;;;;;;5033952;28;20081;-78
2021/04/18 02:41:03;;;;;;;17.92;9.45;;;7.40;99.90;;;;;;5034321;28;20133;-78
2021/04/18 02:43:29;;;;;;;15.95;9.60;;;7.30;99.90;;;;;;5032334;28;20092;-78
2021/04/18 02:45:57;;;;;;;16.23;9.70;;;7.30;99.90;;;;;;5032347;28;20570;-77
2021/04/18 02:48:24;;;;;;;16.60;9.43;;;7.40;99.90;;;;;;5032123;28;20049;-78
2021/04/18 02:50:50;;;;;;;16.42;9.65;;;7.40;99.90;;;;;;5033035;28;20076;-79
2021/04/18 02:53:17;;;;;;;17.33;9.13;;;7.30;99.90;;;;;;5035507;28;20081;-78
2021/04/18 02:55:44;;;;;;;15.35;9.52;;;7.30;99.90;;;;;;5036774;28;20081;-79
2021/04/18 02:58:10;;;;;;;15.23;8.93;;;7.40;99.90;;;;;;5035711;28;20153;-78
2021/04/18 03:00:36;;;;;;;13.60;8.63;;;7.30;99.90;;;;;;5034642;28;20108;-78
2021/04/18 03:03:03;;;;;;;14.95;8.80;;;7.20;99.90;;;;;;5033409;28;20081;-78
2021/04/18 03:05:30;;;;;;;18.02;9.23;;;7.30;99.90;;;;;;5033871;28;20132;-78
2021/04/18 03:07:57;;;;;;;15.90;9.88;;;7.30;99.90;;;;;;5032732;28;20624;-76
2021/04/18 03:10:23;;;;;;;21.05;9.85;;;7.30;99.90;;;;;;5032697;28;20085;-78
2021/04/18 03:12:50;;;;;;;14.18;8.57;;;7.30;99.90;;;;;;5032615;28;20057;-78
2021/04/18 03:15:17;;;;;;;13.15;8.57;;;7.30;99.90;;;;;;5032461;28;20084;-78
2021/04/18 03:17:43;;;;;;;14.68;8.77;;;7.30;99.90;;;;;;5033114;28;20049;-78
2021/04/18 03:20:10;;;;;;;14.32;8.43;;;7.30;99.90;;;;;;5032857;28;20137;-78
2021/04/18 03:22:38;;;;;;;15.20;8.48;;;7.30;99.90;;;;;;5032301;28;20132;-77
2021/04/18 03:25:05;;;;;;;13.48;7.75;;;7.30;99.90;;;;;;5031812;28;20475;-78
2021/04/18 03:27:32;;;;;;;12.25;7.95;;;7.30;99.90;;;;;;5031538;28;20056;-78
2021/04/18 03:29:58;;;;;;;13.98;8.02;;;7.40;99.90;;;;;;5031943;28;20584;-77
2021/04/18 03:32:25;;;;;;;12.48;7.60;;;7.30;99.90;;;;;;5032107;28;20332;-78
2021/04/18 03:34:51;;;;;;;11.80;7.40;;;7.30;99.90;;;;;;5033163;28;20136;-79
2021/04/18 03:37:18;;;;;;;11.88;7.63;;;7.30;99.90;;;;;;5032977;28;20140;-78
2021/04/18 03:39:45;;;;;;;10.82;7.30;;;7.30;99.90;;;;;;5036541;28;20073;-78
2021/04/18 03:42:12;;;;;;;12.25;7.72;;;7.20;99.90;;;;;;5036827;28;20128;-79
2021/04/18 03:44:38;;;;;;;13.23;7.95;;;7.20;99.90;;;;;;5036764;28;20041;-78
2021/04/18 03:47:04;;;;;;;11.85;7.63;;;7.20;99.90;;;;;;5039352;28;20104;-78
2021/04/18 03:49:31;;;;;;;12.80;7.57;;;7.20;99.90;;;;;;5040868;28;20565;-78
2021/04/18 03:51:57;;;;;;;13.10;8.30;;;7.10;99.90;;;;;;5041161;23;20069;-76
2021/04/18 03:54:23;;;;;;;12.57;7.70;;;7.10;99.90;;;;;;5014948;28;20129;-76
2021/04/18 03:56:51;;;;;;;12.57;7.97;;;7.10;99.90;;;;;;5015364;28;20204;-76
2021/04/18 03:59:18;;;;;;;13.05;7.68;;;7.10;99.90;;;;;;5016240;28;20133;-75
2021/04/18 04:01:44;;;;;;;16.00;7.80;;;7.00;99.90;;;;;;5017888;28;20140;-75
2021/04/18 04:04:11;;;;;;;13.15;7.80;;;7.00;99.90;;;;;;5015808;28;20532;-75
2021/04/18 04:06:37;;;;;;;13.25;8.15;;;6.90;99.90;;;;;;5015623;28;20483;-76
2021/04/18 04:09:04;;;;;;;15.30;8.40;;;6.90;99.90;;;;;;5014532;28;20133;-77
2021/04/18 04:11:31;;;;;;;13.30;7.97;;;6.90;99.90;;;;;;5014806;28;20089;-76
2021/04/18 04:13:58;;;;;;;15.38;8.32;;;6.90;99.90;;;;;;5014510;28;20137;-76
2021/04/18 04:16:24;;;;;;;12.55;8.43;;;6.80;99.90;;;;;;5013995;28;20053;-76
2021/04/18 04:18:51;;;;;;;13.20;8.25;;;6.80;99.90;;;;;;5014473;28;20485;-76
2021/04/18 04:21:17;;;;;;;16.50;8.50;;;6.80;99.90;;;;;;5014192;28;20097;-76
2021/04/18 04:23:44;;;;;;;15.55;8.45;;;6.80;99.90;;;;;;5014168;28;20529;-76
2021/04/18 04:26:10;;;;;;;13.45;8.45;;;6.90;99.90;;;;;;5014034;28;20046;-74
2021/04/18 04:28:37;;;;;;;13.80;8.48;;;6.90;99.90;;;;;;5014433;28;20145;-76
2021/04/18 04:31:04;;;;;;;13.63;8.35;;;6.90;99.90;;;;;;5014590;28;20049;-75
2021/04/18 04:33:34;;;;;;;18.38;8.52;;;6.90;99.90;;;;;;5015241;28;20053;-76
2021/04/18 04:36:00;;;;;;;14.80;7.80;;;6.90;99.90;;;;;;5014444;28;20046;-76
2021/04/18 04:38:27;;;;;;;13.52;8.60;;;6.80;99.90;;;;;;5013952;28;20050;-76
2021/04/18 04:40:53;;;;;;;13.98;8.20;;;6.80;99.90;;;;;;5014322;28;20145;-76
2021/04/18 04:43:19;;;;;;;15.27;8.55;;;6.80;99.90;;;;;;5015094;28;20052;-76
2021/04/18 04:45:46;;;;;;;15.43;8.57;;;6.80;99.90;;;;;;5014012;28;20133;-75
2021/04/18 04:48:13;;;;;;;17.95;8.88;;;6.80;99.90;;;;;;5013271;28;20136;-75
2021/04/18 04:50:39;;;;;;;11.88;8.30;;;6.80;99.90;;;;;;5012555;28;20046;-75
2021/04/18 04:53:05;;;;;;;14.15;9.15;;;6.80;99.90;;;;;;5013942;28;20257;-77
2021/04/18 04:55:32;;;;;;;16.42;9.57;;;6.70;99.90;;;;;;5013919;28;20132;-76
2021/04/18 04:57:58;;;;;;;18.45;9.32;;;6.70;99.90;;;;;;5013341;28;20076;-76
2021/04/18 05:00:25;;;;;;;19.23;10.00;;;6.70;99.90;;;;;;5014714;28;20502;-76
2021/04/18 05:02:51;;;;;;;15.80;9.60;;;6.70;99.90;;;;;;5013561;28;20129;-77
2021/04/18 05:05:18;;;;;;;16.63;9.13;;;6.70;99.90;;;;;;5013314;28;20042;-77
2021/04/18 05:07:44;;;;;;;13.70;9.60;;;6.80;99.90;;;;;;5013336;28;20076;-76
2021/04/18 05:10:12;;;;;;;23.45;10.65;;;6.70;99.90;;;;;;5013550;28;20141;-77
2021/04/18 05:12:39;;;;;;;18.85;10.52;;;6.70;99.90;;;;;;5013308;28;20050;-76
2021/04/18 05:15:06;;;;;;;16.45;10.43;;;6.80;99.90;;;;;;5013281;28;20049;-76
2021/04/18 05:17:32;;;;;;;22.10;10.88;;;6.80;99.90;;;;;;5012879;28;20139;-77
2021/04/18 05:19:58;;;;;;;17.52;10.60;;;6.80;99.90;;;;;;5013012;28;20054;-76
2021/04/18 05:22:26;;;;;;;22.02;10.52;;;6.90;99.90;;;;;;5013138;28;20081;-76
2021/04/18 05:24:52;;;;;;;16.60;10.40;;;6.90;99.90;;;;;;5013239;28;20125;-76
2021/04/18 05:27:18;;;;;;;18.88;10.32;;;6.90;99.90;;;;;;5012713;28;20529;-76
2021/04/18 05:29:45;;;;;;;18.13;10.48;;;6.90;99.90;;;;;;5012969;28;20045;-76
2021/04/18 05:32:12;;;;;;;17.83;10.50;;;6.90;99.90;;;;;;5012874;28;20445;-76
2021/04/18 05:34:38;;;;;;;19.88;9.68;;;6.90;99.90;;;;;;5012676;28;20133;-77
2021/04/18 05:37:05;;;;;;;15.70;9.20;;;6.90;99.90;;;;;;5013022;28;20132;-77
2021/04/18 05:39:32;;;;;;;22.25;10.30;;;6.90;99.90;;;;;;5012885;28;20054;-75
2021/04/18 05:41:58;;;;;;;18.55;9.45;;;6.90;99.90;;;;;;5012902;28;20133;-76
2021/04/18 05:44:25;;;;;;;16.60;9.63;;;6.90;99.90;;;;;;5012883;28;20046;-76
2021/04/18 05:46:51;;;;;;;16.60;9.50;;;6.90;99.90;;;;;;5012301;28;20085;-75
2021/04/18 05:49:18;;;;;;;16.45;9.75;;;7.00;99.90;;;;;;5012946;28;20514;-75
2021/04/18 05:51:44;;;;;;;18.40;10.95;;;7.00;99.90;;;;;;5012457;28;20144;-75
2021/04/18 05:54:10;;;;;;;19.83;10.07;;;7.00;99.90;;;;;;5012722;28;20077;-76
2021/04/18 05:56:37;;;;;;;17.50;9.73;;;7.00;99.90;;;;;;5012324;28;20088;-75
2021/04/18 05:59:04;;;;;;;14.98;9.77;;;7.00;99.90;;;;;;5012415;28;20054;-75
2021/04/18 06:01:32;;;;;;;17.02;10.15;;;7.00;99.90;;;;;;5012083;28;20125;-75
2021/04/18 06:03:59;;;;;;;15.48;9.95;;;7.00;99.90;;;;;;5012523;28;20136;-75
2021/04/18 06:06:26;;;;;;;15.38;10.52;;;7.10;99.90;;;;;;5012488;28;20136;-74
2021/04/18 06:08:53;;;;;;;16.42;9.48;;;7.10;99.90;;;;;;5012702;28;20049;-75
2021/04/18 06:11:20;;;;;;;21.98;10.25;;;7.10;99.90;;;;;;5012612;28;20050;-76
2021/04/18 06:13:48;;;;;;;16.60;10.15;;;7.10;99.90;;;;;;5012422;28;20053;-76
2021/04/18 06:16:15;;;;;;;16.00;10.07;;;7.30;99.90;;;;;;5012190;28;20077;-73
2021/04/18 06:18:42;;;;;;;15.65;10.10;;;7.30;99.90;;;;;;5012318;28;20573;-75
2021/04/18 06:21:08;;;;;;;18.83;9.93;;;7.40;99.90;;;;;;5012546;28;20049;-76
2021/04/18 06:23:34;;;;;;;17.55;10.00;;;7.50;99.90;;;;;;5012503;28;20081;-76
2021/04/18 06:26:01;;;;;;;18.23;10.27;;;7.60;99.90;;;;;;5012919;28;20062;-76
2021/04/18 06:28:27;;;;;;;19.02;10.15;;;7.70;99.90;;;;;;5012355;28;20060;-75
2021/04/18 06:30:54;;;;;;;20.63;10.90;;;7.80;99.90;;;;;;5012737;28;20077;-75
2021/04/18 06:33:21;;;;;;;22.38;11.18;;;7.80;99.90;;;;;;5013020;28;20085;-75
2021/04/18 06:35:47;;;;;;;24.63;11.48;;;8.00;99.90;;;;;;5012109;28;20381;-74
2021/04/18 06:38:14;;;;;;;17.75;10.07;;;8.00;99.90;;;;;;5011538;28;20082;-76
2021/04/18 06:40:40;;;;;;;19.48;11.60;;;8.10;99.90;;;;;;5011927;28;20540;-76
2021/04/18 06:43:09;;;;;;;21.77;11.75;;;8.20;99.90;;;;;;5011951;28;20147;-76
2021/04/18 06:45:36;;;;;;;20.75;11.25;;;8.30;99.90;;;;;;5012037;28;20058;-77
2021/04/18 06:48:04;;;;;;;19.40;11.60;;;8.30;99.90;;;;;;5012115;28;20081;-77
2021/04/18 06:50:31;;;;;;;20.65;11.65;;;8.40;99.90;;;;;;5012447;28;20176;-77
2021/04/18 06:52:57;;;;;;;20.38;12.00;;;8.30;99.90;;;;;;5013381;28;20046;-77
2021/04/18 06:55:26;;;;;;;19.52;12.40;;;8.40;99.90;;;;;;5012600;28;20054;-77
2021/04/18 06:57:52;;;;;;;21.48;11.82;;;8.40;99.90;;;;;;5012098;28;20077;-78
2021/04/18 07:00:20;;;;;;;28.42;12.20;;;8.40;99.90;;;;;;5011820;28;20570;-77
2021/04/18 07:02:46;;;;;;;23.05;12.70;;;8.50;99.90;;;;;;5013140;28;20567;-79
2021/04/18 07:05:15;;;;;;;21.95;12.05;;;8.70;99.90;;;;;;5013323;28;20074;-77
2021/04/18 07:07:43;;;;;;;21.60;12.60;;;9.10;99.90;;;;;;5011562;28;20054;-78
2021/04/18 07:10:13;;;;;;;24.10;13.18;;;9.30;99.90;;;;;;5011422;28;20575;-76
2021/04/18 07:12:42;;;;;;;27.20;15.02;;;9.50;99.90;;;;;;5013005;28;20062;-76
2021/04/18 07:15:09;;;;;;;33.72;15.02;;;10.20;99.90;;;;;;5015633;28;20160;-76
2021/04/18 07:17:46;;;;;;;25.80;12.70;;;11.00;99.90;;;;;;5015430;28;20056;-78
2021/04/18 07:20:16;;;;;;;22.38;12.13;;;11.80;99.90;;;;;;5015904;28;20057;-77
2021/04/18 07:22:43;;;;;;;21.50;12.52;;;11.80;99.90;;;;;;5016291;28;20533;-77
2021/04/18 07:25:10;;;;;;;20.40;12.35;;;11.70;99.90;;;;;;5016110;28;20046;-77
2021/04/18 07:27:45;;;;;;;22.77;12.45;;;11.50;99.90;;;;;;5015488;28;20426;-77
2021/04/18 07:30:12;;;;;;;18.25;12.35;;;11.20;99.90;;;;;;5011646;28;20045;-77
2021/04/18 07:32:39;;;;;;;22.10;11.90;;;10.90;99.90;;;;;;5015047;28;20056;-77
2021/04/18 07:35:06;;;;;;;20.40;12.10;;;10.60;99.90;;;;;;5014647;28;20143;-79
2021/04/18 07:37:34;;;;;;;21.05;11.45;;;10.60;99.90;;;;;;5014617;28;20137;-76
2021/04/18 07:40:03;;;;;;;22.80;12.00;;;10.50;99.90;;;;;;5015528;28;20054;-75
2021/04/18 07:42:36;;;;;;;25.25;11.70;;;10.50;99.90;;;;;;5013602;28;20053;-76
2021/04/18 07:45:06;;;;;;;23.90;11.98;;;10.40;99.90;;;;;;5015630;28;20046;-78
2021/04/18 07:47:35;;;;;;;15.80;11.30;;;10.40;99.90;;;;;;5014785;28;20142;-76
2021/04/18 07:50:03;;;;;;;19.13;12.00;;;10.70;99.90;;;;;;5014074;28;20046;-77
2021/04/18 07:52:32;;;;;;;16.58;11.60;;;10.90;99.90;;;;;;5019120;28;20081;-78
2021/04/18 07:55:00;;;;;;;20.33;11.32;;;11.10;99.90;;;;;;5015626;28;20045;-78
2021/04/18 07:57:27;;;;;;;16.10;10.73;;;11.30;99.90;;;;;;5015469;28;20398;-78
2021/04/18 07:59:53;;;;;;;19.83;11.13;;;11.70;99.90;;;;;;5017192;28;20140;-78
2021/04/18 08:02:21;;;;;;;18.75;10.05;;;12.40;99.90;;;;;;5020729;28;20098;-79
2021/04/18 08:04:50;;;;;;;14.05;10.65;;;13.00;99.90;;;;;;5016829;28;20057;-79
2021/04/18 08:07:17;;;;;;;17.25;10.63;;;13.50;99.90;;;;;;5018228;28;20119;-79
2021/04/18 08:09:43;;;;;;;17.17;10.68;;;13.80;99.90;;;;;;5020420;28;20607;-79
2021/04/18 08:12:14;;;;;;;19.50;11.00;;;14.40;99.90;;;;;;5019889;28;20109;-79
2021/04/18 08:14:42;;;;;;;15.20;10.90;;;14.70;99.90;;;;;;5019032;28;20081;-79
2021/04/18 08:17:10;;;;;;;20.92;11.70;;;14.90;99.90;;;;;;5018111;28;20117;-78
2021/04/18 08:19:37;;;;;;;17.20;11.00;;;14.90;99.90;;;;;;5021708;28;20054;-80
2021/04/18 08:22:05;;;;;;;16.83;11.20;;;14.80;99.90;;;;;;5018744;28;20053;-78
2021/04/18 08:24:35;;;;;;;16.08;10.80;;;14.80;99.90;;;;;;5016537;28;20121;-77
2021/04/18 08:27:05;;;;;;;17.52;11.40;;;14.80;99.90;;;;;;5015893;28;20104;-78
2021/04/18 08:29:33;;;;;;;20.55;11.40;;;14.80;99.90;;;;;;5015590;28;20135;-78
2021/04/18 08:32:03;;;;;;;18.67;10.73;;;14.60;99.90;;;;;;5015824;28;20064;-78
2021/04/18 08:34:32;;;;;;;18.23;11.43;;;14.40;99.90;;;;;;5013894;28;20113;-77
2021/04/18 08:37:00;;;;;;;19.33;12.27;;;14.10;99.90;;;;;;5016349;28;20408;-78
2021/04/18 08:39:36;;;;;;;19.13;11.63;;;13.70;99.90;;;;;;5018263;28;20049;-78
2021/04/18 08:42:05;;;;;;;19.88;12.13;;;13.50;99.90;;;;;;5022352;28;20107;-78
2021/04/18 08:44:44;;;;;;;18.63;11.85;;;13.30;99.90;;;;;;5020189;28;20030;-77
2021/04/18 08:47:13;;;;;;;17.50;12.75;;;13.10;99.90;;;;;;5025036;28;20046;-78
2021/04/18 08:49:42;;;;;;;19.08;12.20;;;13.20;99.90;;;;;;5029214;28;20072;-77
2021/04/18 08:52:10;;;;;;;19.60;12.70;;;12.90;99.90;;;;;;5027644;28;20199;-76
2021/04/18 08:54:40;;;;;;;24.70;13.23;;;12.80;99.90;;;;;;5021210;28;20128;-77
2021/04/18 08:57:10;;;;;;;16.95;12.15;;;12.90;99.90;;;;;;4992496;28;20062;-78
2021/04/18 08:59:42;;;;;;;20.58;12.48;;;12.90;99.90;;;;;;4990411;28;20054;-77
2021/04/18 09:02:10;;;;;;;20.57;12.97;;;12.90;99.90;;;;;;4995306;28;20046;-77
2021/04/18 09:04:39;;;;;;;21.73;13.82;;;13.00;99.90;;;;;;4994993;28;20053;-78
2021/04/18 09:07:08;;;;;;;19.73;12.52;;;12.90;99.90;;;;;;4996984;28;20051;-79
2021/04/18 09:09:35;;;;;;;21.80;13.43;;;12.80;99.90;;;;;;4995787;28;20074;-77
2021/04/18 09:12:03;;;;;;;23.77;13.13;;;12.80;99.90;;;;;;4997574;28;20069;-78
2021/04/18 09:14:31;;;;;;;23.63;13.63;;;12.70;99.90;;;;;;5000107;28;20054;-77
2021/04/18 09:17:13;;;;;;;22.70;13.48;;;12.60;99.90;;;;;;4984077;28;20126;-78
2021/04/18 09:19:40;;;;;;;24.93;14.30;;;12.50;99.90;;;;;;4976913;28;20060;-78
2021/04/18 09:22:10;;;;;;;20.15;13.52;;;12.40;99.90;;;;;;4976937;28;20051;-78
2021/04/18 09:24:42;;;;;;;20.88;13.38;;;12.30;99.90;;;;;;4980875;28;20106;-79
2021/04/18 09:27:12;;;;;;;23.52;13.15;;;12.30;99.90;;;;;;4993785;28;20505;-78
2021/04/18 09:29:49;;;;;;;22.65;13.52;;;12.30;99.90;;;;;;4993777;28;20149;-78
2021/04/18 09:32:18;;;;;;;21.35;13.25;;;12.30;99.90;;;;;;4995216;28;20078;-78
2021/04/18 09:34:46;;;;;;;21.05;14.07;;;12.20;99.90;;;;;;4995369;28;20073;-77
2021/04/18 09:37:21;;;;;;;21.45;13.40;;;12.10;99.90;;;;;;4995443;28;20057;-77
2021/04/18 09:39:51;;;;;;;20.70;13.30;;;12.20;99.90;;;;;;4995076;28;20133;-77
2021/04/18 09:42:18;;;;;;;19.45;12.85;;;12.30;99.90;;;;;;4996055;28;20058;-78
2021/04/18 09:44:46;;;;;;;16.83;11.88;;;12.30;99.90;;;;;;4996936;28;20495;-78
2021/04/18 09:47:22;;;;;;;20.13;13.55;;;12.40;99.90;;;;;;4995725;28;20057;-78
2021/04/18 09:49:52;;;;;;;20.75;12.68;;;12.40;99.90;;;;;;4998665;28;20145;-79
2021/04/18 09:52:33;;;;;;;18.35;12.13;;;12.20;99.90;;;;;;5050215;23;20058;-77
2021/04/18 09:55:20;;;;;;;18.95;12.55;;;12.20;99.90;;;;;;5033079;28;20366;-75
2021/04/18 09:57:50;;;;;;;18.40;11.88;;;12.10;99.90;;;;;;5032929;28;20056;-78
2021/04/18 10:00:23;;;;;;;18.75;12.75;;;12.00;99.90;;;;;;5032626;28;20089;-77
2021/04/18 10:03:08;;;;;;;19.65;13.50;;;12.00;99.90;;;;;;5011933;28;20132;-78
2021/04/18 10:05:38;;;;;;;19.02;12.52;;;12.10;99.90;;;;;;5011510;28;20144;-79
2021/04/18 10:08:19;;;;;;;21.90;12.77;;;12.00;99.90;;;;;;5012276;28;20094;-77
2021/04/18 10:10:52;;;;;;;28.25;12.75;;;12.00;99.90;;;;;;5010019;28;20046;-79
2021/04/18 10:13:42;;;;;;;20.50;11.82;;;12.10;99.90;;;;;;5011888;28;20054;-77
2021/04/18 10:16:11;;;;;;;18.27;11.60;;;12.20;99.90;;;;;;5011136;28;20558;-77
2021/04/18 10:19:02;;;;;;;18.02;11.75;;;12.20;99.90;;;;;;5011783;28;20057;-78
2021/04/18 10:21:29;;;;;;;18.15;11.93;;;12.20;99.90;;;;;;5011712;28;20062;-77
2021/04/18 10:23:55;;;;;;;21.63;12.25;;;12.10;99.90;;;;;;5011602;28;20050;-77
2021/04/18 10:26:23;;;;;;;21.15;11.90;;;12.00;99.90;;;;;;5012038;28;20125;-79
2021/04/18 10:28:51;;;;;;;21.90;13.25;;;12.00;99.90;;;;;;5011889;28;20050;-80
2021/04/18 10:31:18;;;;;;;23.65;12.93;;;11.90;99.90;;;;;;5011734;28;20495;-78
2021/04/18 10:33:46;;;;;;;21.08;12.18;;;11.70;99.90;;;;;;5010485;28;20142;-76
2021/04/18 10:36:13;;;;;;;20.05;13.20;;;11.60;99.90;;;;;;5009705;28;20129;-78
2021/04/18 10:38:40;;;;;;;19.73;13.38;;;11.60;99.90;;;;;;5011665;28;20057;-78
2021/04/18 10:41:07;;;;;;;22.05;14.98;;;11.60;99.90;;;;;;5011794;28;20054;-78
2021/04/18 10:43:35;;;;;;;15.93;12.23;;;11.70;99.90;;;;;;5012202;28;20100;-79
2021/04/18 10:46:02;;;;;;;18.98;13.55;;;11.70;99.90;;;;;;5012362;28;20143;-78
2021/04/18 10:48:28;;;;;;;22.30;14.75;;;11.80;99.90;;;;;;5015134;28;20133;-78
2021/04/18 10:50:56;;;;;;;21.23;14.40;;;11.80;99.90;;;;;;5015375;28;20069;-79
2021/04/18 10:53:22;;;;;;;20.77;14.10;;;11.90;99.90;;;;;;5017095;28;20133;-78
2021/04/18 10:55:49;;;;;;;18.20;12.52;;;12.00;99.90;;;;;;5015840;28;20081;-78
2021/04/18 10:58:16;;;;;;;21.25;13.35;;;12.00;99.90;;;;;;5015059;28;20060;-78
2021/04/18 11:00:43;;;;;;;20.92;12.90;;;12.00;99.90;;;;;;5015283;28;20065;-78
2021/04/18 11:03:09;;;;;;;20.23;12.80;;;12.00;99.90;;;;;;5016188;28;20141;-78
2021/04/18 11:05:36;;;;;;;20.52;12.98;;;12.10;99.90;;;;;;5017533;28;20109;-78
2021/04/18 11:08:04;;;;;;;19.73;13.32;;;12.20;99.90;;;;;;5014684;28;20392;-78
2021/04/18 11:10:30;;;;;;;18.65;12.23;;;12.30;99.90;;;;;;5016105;28;20050;-78
2021/04/18 11:12:56;;;;;;;19.20;12.18;;;12.50;99.90;;;;;;5016763;28;20560;-77
2021/04/18 11:15:23;;;;;;;20.23;12.52;;;12.70;99.90;;;;;;5019584;28;20057;-79
2021/04/18 11:17:49;;;;;;;20.65;12.75;;;12.90;99.90;;;;;;5018104;28;20632;-78
2021/04/18 11:20:18;;;;;;;19.67;12.80;;;13.00;99.90;;;;;;5018300;28;20109;-78
2021/04/18 11:22:44;;;;;;;20.50;13.10;;;13.10;99.90;;;;;;5019401;28;20054;-79
2021/04/18 11:25:13;;;;;;;18.88;12.27;;;13.20;99.90;;;;;;5019501;28;20129;-81
2021/04/18 11:27:40;;;;;;;16.45;12.18;;;13.20;99.90;;;;;;5019939;28;20050;-80
2021/04/18 11:30:09;;;;;;;18.63;12.43;;;13.30;99.90;;;;;;5020177;28;20086;-80
2021/04/18 11:32:36;;;;;;;22.95;13.35;;;13.30;99.90;;;;;;5018931;28;20425;-79
2021/04/18 11:35:04;;;;;;;19.40;12.77;;;13.30;99.90;;;;;;5018616;28;20130;-78
2021/04/18 11:37:31;;;;;;;21.23;12.68;;;13.50;99.90;;;;;;5019039;28;20520;-79
2021/04/18 11:39:57;;;;;;;20.17;12.93;;;13.60;99.90;;;;;;5019802;28;20102;-78
2021/04/18 11:42:24;;;;;;;17.27;12.63;;;13.60;99.90;;;;;;5019673;28;20085;-80
2021/04/18 11:44:51;;;;;;;18.48;14.45;;;13.60;99.90;;;;;;5020006;28;20072;-79
2021/04/18 11:47:18;;;;;;;22.05;12.77;;;13.70;99.90;;;;;;5019232;28;20140;-80
2021/04/18 11:49:45;;;;;;;19.15;12.32;;;13.80;99.90;;;;;;5020787;28;20602;-78
2021/04/18 11:52:14;;;;;;;17.33;12.38;;;13.90;99.90;;;;;;5026293;28;20145;-77
2021/04/18 11:54:41;;;;;;;16.48;11.77;;;14.00;99.90;;;;;;5025342;28;20054;-79
2021/04/18 11:57:08;;;;;;;17.75;11.98;;;14.10;99.90;;;;;;5021012;28;20105;-79
2021/04/18 11:59:37;;;;;;;21.85;12.63;;;14.20;99.90;;;;;;5019778;28;20081;-78
2021/04/18 12:02:03;;;;;;;16.63;11.88;;;14.10;99.90;;;;;;5021037;28;20137;-79
2021/04/18 12:04:30;;;;;;;20.08;11.98;;;14.20;99.90;;;;;;5019160;28;20057;-78
2021/04/18 12:06:57;;;;;;;17.27;11.50;;;14.10;99.90;;;;;;5019070;28;20049;-79
2021/04/18 12:09:23;;;;;;;16.98;11.45;;;14.20;99.90;;;;;;5025032;28;20135;-79
2021/04/18 12:11:49;;;;;;;17.20;11.85;;;14.30;99.90;;;;;;5023735;28;20057;-80
2021/04/18 12:14:16;;;;;;;15.27;11.95;;;14.40;99.90;;;;;;5023902;28;20054;-79
2021/04/18 12:16:43;;;;;;;17.02;11.23;;;14.50;99.90;;;;;;5023685;28;20056;-79
2021/04/18 12:19:10;;;;;;;16.10;11.60;;;14.60;99.90;;;;;;5023984;28;20109;-80
2021/04/18 12:21:36;;;;;;;16.08;11.80;;;14.60;99.90;;;;;;5023073;28;20050;-79
2021/04/18 12:24:03;;;;;;;20.25;12.35;;;14.60;99.90;;;;;;5024632;28;20070;-79
2021/04/18 12:26:30;;;;;;;18.70;12.00;;;14.50;99.90;;;;;;5023072;28;20179;-78
2021/04/18 12:28:56;;;;;;;15.23;11.43;;;14.50;99.90;;;;;;5020321;28;20129;-78
2021/04/18 12:31:22;;;;;;;17.17;11.98;;;14.50;99.90;;;;;;5015634;28;20562;-78
2021/04/18 12:33:50;;;;;;;17.98;11.60;;;14.50;99.90;;;;;;5015133;28;20113;-79
2021/04/18 12:36:16;;;;;;;14.88;11.13;;;14.50;99.90;;;;;;5014629;28;20046;-79
2021/04/18 12:38:42;;;;;;;15.13;11.20;;;14.50;99.90;;;;;;5016048;28;20081;-78